Terminal Aerodrome Forecast
Issued by NWS

Home | Current Version | Previous Version | Graphics & Text | Print | Product List | Glossary On
Versions: 1 2 3 4 5 6 7 8 9 10 11 12 13 14 15 16 17 18 19 20 21
000
FTUS43 KICT 251136
TAFSLN
TAF
KSLN 251136Z 2512/2612 02012KT P6SM FEW006 SCT020 BKN100
      TEMPO 2512/2515 SCT006 BKN020
     FM251600 04007KT P6SM SCT020 BKN100
     FM252200 05006KT P6SM VCTS SCT035CB BKN080
     FM260800 02006KT P6SM BKN100=

USA.gov is the U.S. government's official web portal to all federal, state and local government web resources and services.